Time;durP1;ratioP1;P1;durP2;ratioP2;P2;SDS_P1;SDS_P2;PMS_P1;PMS_P2;Temp;Humidity;BMP_temperature;BMP_pressure;BME280_temperature;BME280_humidity;BME280_pressure;Samples;Min_cycle;Max_cycle;Signal;HPM_P1;HPM_P2
2021/06/12 00:00:14;;;;;;;7.97;6.50;;;23.90;1.00;;;;;;5074143;28;20544;-69
2021/06/12 00:02:40;;;;;;;7.20;6.50;;;23.90;1.00;;;;;;5074145;28;20458;-69
2021/06/12 00:05:11;;;;;;;9.47;6.90;;;23.80;1.00;;;;;;5074528;28;20462;-69
2021/06/12 00:07:38;;;;;;;7.77;6.50;;;23.80;1.00;;;;;;5074652;28;20442;-69
2021/06/12 00:10:08;;;;;;;6.67;5.97;;;23.80;1.00;;;;;;5074460;28;20461;-69
2021/06/12 00:12:34;;;;;;;6.77;6.07;;;23.70;1.00;;;;;;5074071;28;20488;-69
2021/06/12 00:15:00;;;;;;;9.63;6.07;;;23.70;1.00;;;;;;5073795;28;20454;-69
2021/06/12 00:17:27;;;;;;;5.47;4.97;;;23.70;1.00;;;;;;5074364;28;20523;-69
2021/06/12 00:19:53;;;;;;;8.17;5.73;;;23.70;1.00;;;;;;5074343;28;20478;-69
2021/06/12 00:22:19;;;;;;;7.00;5.60;;;23.70;1.00;;;;;;5077524;28;20482;-68
2021/06/12 00:24:47;;;;;;;6.20;5.57;;;23.60;1.00;;;;;;5078355;28;20890;-69
2021/06/12 00:27:13;;;;;;;11.00;5.80;;;23.60;1.00;;;;;;5078693;28;20465;-68
2021/06/12 00:29:39;;;;;;;6.40;5.60;;;23.60;1.00;;;;;;5077378;28;20485;-68
2021/06/12 00:32:06;;;;;;;7.37;5.80;;;23.60;1.00;;;;;;5077829;28;20454;-68
2021/06/12 00:34:32;;;;;;;6.00;5.40;;;23.60;1.00;;;;;;5077470;28;20469;-68
2021/06/12 00:37:02;;;;;;;5.40;4.90;;;23.60;1.00;;;;;;5077358;28;20921;-68
2021/06/12 00:39:28;;;;;;;5.50;4.23;;;23.50;1.00;;;;;;5077447;28;20483;-68
2021/06/12 00:41:55;;;;;;;5.90;5.30;;;23.50;1.00;;;;;;5077586;28;20458;-68
2021/06/12 00:44:22;;;;;;;6.00;5.40;;;23.50;1.00;;;;;;5076843;28;20963;-68
2021/06/12 00:46:51;;;;;;;6.03;5.03;;;23.40;1.00;;;;;;5077263;28;20462;-68
2021/06/12 00:49:20;;;;;;;4.90;4.40;;;23.40;1.00;;;;;;5077080;28;20477;-68
2021/06/12 00:51:48;;;;;;;5.20;4.23;;;23.40;1.00;;;;;;5076990;28;20784;-68
2021/06/12 00:54:14;;;;;;;4.90;4.50;;;23.40;1.00;;;;;;5077336;28;20549;-68
2021/06/12 00:56:40;;;;;;;4.60;4.20;;;23.30;1.00;;;;;;5077388;28;20736;-68
2021/06/12 00:59:08;;;;;;;5.73;5.20;;;23.30;1.00;;;;;;5077437;28;20559;-68
2021/06/12 01:01:34;;;;;;;5.90;5.27;;;23.30;1.00;;;;;;5077165;28;20458;-68
2021/06/12 01:04:01;;;;;;;7.33;5.30;;;23.30;1.00;;;;;;5076745;28;20480;-68
2021/06/12 01:06:27;;;;;;;5.10;4.70;;;23.30;1.00;;;;;;5077254;28;20647;-68
2021/06/12 01:08:53;;;;;;;7.53;5.30;;;23.30;1.00;;;;;;5077049;28;20446;-68
2021/06/12 01:11:20;;;;;;;5.63;5.13;;;23.30;1.00;;;;;;5077071;28;20488;-68
2021/06/12 01:14:00;;;;;;;5.40;4.80;;;23.30;1.00;;;;;;5077112;28;20542;-68
2021/06/12 01:16:35;;;;;;;6.13;5.53;;;23.20;1.00;;;;;;5076828;28;20514;-69
2021/06/12 01:19:17;;;;;;;6.20;5.60;;;23.20;1.00;;;;;;5076743;28;20462;-68
2021/06/12 01:21:46;;;;;;;6.60;6.00;;;23.10;1.00;;;;;;5077461;28;20450;-68
2021/06/12 01:24:30;;;;;;;6.03;5.43;;;23.10;1.00;;;;;;5076160;28;20481;-68
2021/06/12 01:27:11;;;;;;;6.47;5.87;;;23.00;1.00;;;;;;5076920;28;20442;-68
2021/06/12 01:29:46;;;;;;;6.37;5.73;;;23.00;1.00;;;;;;5077104;28;20871;-68
2021/06/12 01:32:15;;;;;;;6.43;5.83;;;22.90;1.00;;;;;;5076642;28;20442;-67
2021/06/12 01:34:45;;;;;;;10.43;6.40;;;22.90;1.00;;;;;;5077639;28;20454;-67
2021/06/12 01:37:14;;;;;;;6.23;5.70;;;22.90;1.00;;;;;;5077237;28;20462;-67
2021/06/12 01:39:41;;;;;;;6.87;6.17;;;22.80;1.00;;;;;;5077724;28;20490;-67
2021/06/12 01:42:12;;;;;;;6.47;5.97;;;22.70;1.00;;;;;;5077009;28;20454;-67
2021/06/12 01:44:43;;;;;;;6.30;5.80;;;22.70;1.00;;;;;;5076664;28;20442;-67
2021/06/12 01:47:11;;;;;;;7.53;6.10;;;22.60;1.00;;;;;;5076863;28;20882;-67
2021/06/12 01:49:40;;;;;;;8.03;5.90;;;22.60;1.00;;;;;;5076610;28;20461;-67
2021/06/12 01:52:07;;;;;;;6.17;5.57;;;22.50;1.00;;;;;;5076574;28;20454;-67
2021/06/12 01:54:35;;;;;;;6.27;5.33;;;22.50;1.00;;;;;;5076353;28;20511;-67
2021/06/12 01:57:03;;;;;;;6.40;5.87;;;22.50;1.00;;;;;;5076477;28;20507;-67
2021/06/12 01:59:31;;;;;;;6.80;6.17;;;22.50;1.00;;;;;;5076033;28;20486;-67
2021/06/12 02:02:01;;;;;;;6.87;5.00;;;22.50;1.00;;;;;;5075991;28;20796;-67
2021/06/12 02:04:29;;;;;;;6.50;5.90;;;22.50;1.00;;;;;;5076000;28;20453;-68
2021/06/12 02:07:01;;;;;;;6.17;5.57;;;22.60;1.00;;;;;;5076435;28;20462;-67
2021/06/12 02:09:30;;;;;;;5.47;5.07;;;22.60;1.00;;;;;;5076902;28;20512;-68
2021/06/12 02:12:00;;;;;;;6.33;5.73;;;22.50;1.00;;;;;;5075712;28;20454;-67
2021/06/12 02:14:27;;;;;;;5.93;5.43;;;22.50;1.00;;;;;;5075846;28;20442;-67
2021/06/12 02:16:54;;;;;;;5.57;5.17;;;22.50;1.00;;;;;;5075316;28;20458;-67
2021/06/12 02:19:22;;;;;;;5.77;5.33;;;22.50;1.00;;;;;;5075340;28;20475;-67
2021/06/12 02:21:50;;;;;;;6.67;6.00;;;22.50;1.00;;;;;;5075878;28;20466;-68
2021/06/12 02:24:19;;;;;;;5.80;5.30;;;22.40;1.00;;;;;;5075754;28;20454;-67
2021/06/12 02:26:51;;;;;;;6.20;5.60;;;22.40;1.00;;;;;;5076118;28;20450;-67
2021/06/12 02:29:19;;;;;;;6.27;5.77;;;22.30;1.00;;;;;;5075932;28;20419;-67
2021/06/12 02:31:53;;;;;;;5.53;5.03;;;22.20;1.00;;;;;;5076450;28;20514;-67
2021/06/12 02:34:19;;;;;;;5.97;5.43;;;22.20;1.00;;;;;;5076378;28;20435;-67
2021/06/12 02:36:45;;;;;;;6.40;5.00;;;22.20;1.00;;;;;;5076002;28;20926;-68
2021/06/12 02:39:12;;;;;;;5.93;5.33;;;22.20;3.80;;;;;;5075360;28;20501;-69
2021/06/12 02:41:39;;;;;;;8.13;6.17;;;22.20;16.10;;;;;;5075184;28;20462;-67
2021/06/12 02:44:06;;;;;;;7.70;6.37;;;22.10;36.10;;;;;;5074638;28;20463;-67
2021/06/12 02:46:34;;;;;;;6.60;5.63;;;22.10;69.70;;;;;;5074877;28;20484;-68
2021/06/12 02:49:04;;;;;;;6.13;5.40;;;22.10;98.90;;;;;;5074467;28;20918;-68
2021/06/12 02:51:34;;;;;;;6.80;6.00;;;22.10;99.90;;;;;;5074807;28;20465;-68
2021/06/12 02:54:00;;;;;;;6.47;5.87;;;22.10;99.90;;;;;;5074896;28;20461;-68
2021/06/12 02:56:27;;;;;;;7.37;6.77;;;22.00;99.90;;;;;;5074755;28;20458;-69
2021/06/12 02:59:00;;;;;;;6.57;5.97;;;22.00;99.90;;;;;;5074983;28;20482;-68
2021/06/12 03:01:29;;;;;;;6.63;6.03;;;22.00;99.90;;;;;;5075393;28;20879;-68
2021/06/12 03:03:57;;;;;;;6.33;5.60;;;21.90;99.90;;;;;;5074797;28;20454;-68
2021/06/12 03:06:26;;;;;;;6.83;6.23;;;21.90;99.90;;;;;;5074961;28;20777;-69
2021/06/12 03:08:53;;;;;;;5.30;4.90;;;21.80;1.00;;;;;;5074739;28;20454;-68
2021/06/12 03:11:20;;;;;;;6.53;5.90;;;21.80;1.00;;;;;;5074443;28;20458;-68
2021/06/12 03:13:49;;;;;;;5.70;5.20;;;21.80;1.00;;;;;;5074385;28;20791;-68
2021/06/12 03:16:18;;;;;;;6.20;5.60;;;21.80;1.00;;;;;;5074578;28;20926;-68
2021/06/12 03:18:47;;;;;;;5.87;5.37;;;21.80;1.00;;;;;;5074095;28;20477;-68
2021/06/12 03:21:15;;;;;;;5.23;4.83;;;21.80;1.00;;;;;;5074674;28;20565;-68
2021/06/12 03:23:45;;;;;;;6.20;5.60;;;21.80;1.00;;;;;;5074239;28;20498;-68
2021/06/12 03:26:12;;;;;;;5.67;4.97;;;21.80;1.00;;;;;;5074590;28;20805;-68
2021/06/12 03:28:40;;;;;;;5.90;5.40;;;21.80;1.00;;;;;;5074437;28;20938;-68
2021/06/12 03:31:07;;;;;;;5.63;5.13;;;21.80;1.00;;;;;;5074789;28;20462;-69
2021/06/12 03:33:35;;;;;;;5.37;4.90;;;21.80;1.00;;;;;;5075210;28;20832;-68
2021/06/12 03:36:02;;;;;;;5.27;4.80;;;21.80;1.00;;;;;;5079900;28;20465;-68
2021/06/12 03:38:30;;;;;;;5.23;4.73;;;21.80;1.00;;;;;;5080155;28;20493;-68
2021/06/12 03:40:57;;;;;;;5.40;4.73;;;21.70;1.00;;;;;;5079983;28;20961;-68
2021/06/12 03:43:24;;;;;;;4.70;4.30;;;21.70;1.00;;;;;;5080562;28;20462;-68
2021/06/12 03:45:56;;;;;;;4.53;4.13;;;21.60;1.00;;;;;;5080602;28;20455;-68
2021/06/12 03:48:23;;;;;;;4.33;4.00;;;21.60;84.30;;;;;;5080995;28;20473;-68
2021/06/12 03:50:53;;;;;;;4.20;3.90;;;21.60;99.90;;;;;;5080711;28;20925;-68
2021/06/12 03:53:20;;;;;;;4.23;3.93;;;21.60;99.90;;;;;;5080410;28;20462;-68
2021/06/12 03:55:48;;;;;;;4.37;3.97;;;21.60;99.90;;;;;;5082005;28;20462;-68
2021/06/12 03:58:19;;;;;;;4.87;4.40;;;21.50;99.90;;;;;;5084807;28;20923;-68
2021/06/12 04:00:45;;;;;;;4.10;3.70;;;21.50;1.00;;;;;;5084823;28;21004;-69
2021/06/12 04:03:12;;;;;;;4.00;3.60;;;21.50;1.00;;;;;;5084894;28;20468;-68
2021/06/12 04:05:38;;;;;;;4.63;4.27;;;21.50;1.00;;;;;;5085171;28;20461;-68
2021/06/12 04:08:06;;;;;;;4.07;3.77;;;21.60;1.00;;;;;;5084984;28;20453;-68
2021/06/12 04:10:32;;;;;;;4.97;4.47;;;21.60;1.00;;;;;;5084263;28;20469;-68
2021/06/12 04:12:58;;;;;;;5.63;4.10;;;21.60;1.00;;;;;;5084347;28;20454;-68
2021/06/12 04:15:24;;;;;;;5.03;3.90;;;21.70;1.00;;;;;;5085011;28;20458;-68
2021/06/12 04:17:58;;;;;;;4.23;3.87;;;21.70;1.00;;;;;;5083521;28;20942;-68
2021/06/12 04:20:25;;;;;;;5.20;3.53;;;21.70;1.00;;;;;;5084896;28;20511;-68
2021/06/12 04:22:51;;;;;;;3.70;3.40;;;21.60;1.00;;;;;;5083984;28;20486;-68
2021/06/12 04:25:18;;;;;;;3.57;3.27;;;21.60;1.00;;;;;;5082762;28;20454;-68
2021/06/12 04:27:45;;;;;;;5.93;4.33;;;21.70;1.00;;;;;;5084327;28;20450;-68
2021/06/12 04:30:14;;;;;;;4.00;3.20;;;21.70;1.00;;;;;;5084857;28;20457;-68
2021/06/12 04:32:40;;;;;;;4.03;3.73;;;21.80;1.00;;;;;;5085353;28;20532;-68
2021/06/12 04:35:07;;;;;;;3.90;3.57;;;21.70;1.00;;;;;;5084148;28;20488;-68
2021/06/12 04:37:33;;;;;;;3.80;3.50;;;21.80;1.00;;;;;;5084594;28;20478;-69
2021/06/12 04:39:59;;;;;;;4.00;3.70;;;21.80;1.00;;;;;;5083389;28;21019;-68
2021/06/12 04:42:27;;;;;;;5.60;3.70;;;21.80;1.00;;;;;;5083828;28;20465;-68
2021/06/12 04:44:53;;;;;;;4.80;4.13;;;21.70;1.00;;;;;;5083582;28;20882;-69
2021/06/12 04:47:19;;;;;;;4.60;4.20;;;21.70;1.00;;;;;;5079938;28;20552;-68
2021/06/12 04:49:46;;;;;;;5.00;4.07;;;21.70;99.90;;;;;;5078884;28;20450;-69
2021/06/12 04:52:12;;;;;;;4.00;3.60;;;21.70;99.90;;;;;;5079036;28;20469;-69
2021/06/12 04:54:38;;;;;;;9.70;4.40;;;21.70;99.90;;;;;;5080925;28;20546;-69
2021/06/12 04:57:06;;;;;;;7.20;4.70;;;21.70;99.90;;;;;;5081206;28;20458;-69
2021/06/12 04:59:34;;;;;;;4.00;3.70;;;21.70;99.90;;;;;;5082689;28;20482;-69
2021/06/12 05:02:00;;;;;;;5.37;4.00;;;21.60;1.00;;;;;;5083687;28;20458;-69
2021/06/12 05:04:26;;;;;;;4.43;4.07;;;21.60;1.00;;;;;;5084331;28;20450;-69
2021/06/12 05:06:52;;;;;;;3.90;3.60;;;21.60;1.00;;;;;;5080961;28;20450;-69
2021/06/12 05:09:20;;;;;;;4.83;3.47;;;21.60;1.00;;;;;;5081670;28;20476;-69
2021/06/12 05:11:48;;;;;;;3.57;3.37;;;21.60;1.00;;;;;;5085009;28;20458;-69
2021/06/12 05:14:14;;;;;;;3.97;3.67;;;21.60;1.00;;;;;;5083455;28;20459;-69
2021/06/12 05:16:42;;;;;;;4.20;3.33;;;21.70;99.90;;;;;;5081582;28;20465;-69
2021/06/12 05:19:08;;;;;;;3.70;3.40;;;21.70;99.90;;;;;;5079926;28;20523;-69
2021/06/12 05:21:36;;;;;;;4.13;3.73;;;21.60;99.90;;;;;;5079384;28;20459;-69
2021/06/12 05:24:03;;;;;;;4.13;3.70;;;21.70;99.90;;;;;;5078866;28;20490;-69
2021/06/12 05:26:29;;;;;;;3.93;3.63;;;21.60;1.00;;;;;;5082395;28;20520;-69
2021/06/12 05:28:55;;;;;;;4.97;4.30;;;21.60;1.00;;;;;;5083382;28;20956;-69
2021/06/12 05:31:22;;;;;;;4.10;3.80;;;21.60;1.00;;;;;;5086299;28;20454;-70
2021/06/12 05:33:50;;;;;;;4.30;3.90;;;21.60;1.00;;;;;;5086699;28;20477;-69
2021/06/12 05:36:16;;;;;;;3.87;3.53;;;21.70;1.00;;;;;;5087668;28;20527;-68
2021/06/12 05:38:43;;;;;;;3.90;3.60;;;21.70;1.00;;;;;;5086512;28;20504;-69
2021/06/12 05:41:09;;;;;;;4.57;4.17;;;21.70;1.00;;;;;;5084480;28;20454;-69
2021/06/12 05:43:35;;;;;;;4.50;4.20;;;21.70;1.00;;;;;;5081831;28;20856;-67
2021/06/12 05:46:02;;;;;;;4.10;3.63;;;21.70;99.90;;;;;;5083676;28;20454;-67
2021/06/12 05:48:28;;;;;;;4.23;3.83;;;21.70;1.00;;;;;;5085347;28;20591;-67
2021/06/12 05:50:56;;;;;;;3.83;3.57;;;21.70;1.00;;;;;;5084845;28;20469;-67
2021/06/12 05:53:22;;;;;;;4.40;4.00;;;21.70;5.70;;;;;;5085060;28;20454;-68
2021/06/12 05:55:48;;;;;;;3.90;3.60;;;21.70;99.90;;;;;;5083202;28;20459;-67
2021/06/12 05:58:14;;;;;;;3.70;3.40;;;21.70;1.00;;;;;;5083709;28;20450;-69
2021/06/12 06:00:40;;;;;;;3.93;3.63;;;21.70;1.00;;;;;;5080232;28;20493;-68
2021/06/12 06:03:07;;;;;;;4.63;3.40;;;21.70;1.00;;;;;;5078908;28;20458;-67
2021/06/12 06:05:33;;;;;;;3.50;3.20;;;21.70;1.00;;;;;;5082172;28;20466;-69
2021/06/12 06:08:00;;;;;;;4.27;3.87;;;21.60;1.00;;;;;;5081704;28;20469;-67
2021/06/12 06:10:27;;;;;;;5.57;5.07;;;21.60;1.00;;;;;;5082330;28;20450;-68
2021/06/12 06:12:53;;;;;;;4.87;3.93;;;21.60;1.00;;;;;;5083330;28;20454;-68
2021/06/12 06:15:20;;;;;;;3.77;3.47;;;21.60;1.00;;;;;;5080745;28;20466;-68
2021/06/12 06:17:46;;;;;;;4.57;3.77;;;21.60;1.00;;;;;;5079964;28;20458;-68
2021/06/12 06:20:14;;;;;;;4.37;3.97;;;21.60;1.00;;;;;;5079273;28;20837;-68
2021/06/12 06:22:41;;;;;;;4.10;3.80;;;21.60;1.00;;;;;;5082113;28;20489;-68
2021/06/12 06:25:10;;;;;;;5.80;3.90;;;21.60;1.00;;;;;;5083347;28;20469;-68
2021/06/12 06:27:37;;;;;;;4.13;3.73;;;21.60;1.00;;;;;;5081728;28;20454;-67
2021/06/12 06:30:04;;;;;;;4.00;3.70;;;21.50;34.50;;;;;;5082734;28;20906;-70
2021/06/12 06:32:31;;;;;;;4.17;3.87;;;21.50;99.90;;;;;;5081760;28;20466;-68
2021/06/12 06:34:57;;;;;;;3.90;3.60;;;21.50;1.00;;;;;;5082979;28;20450;-68
2021/06/12 06:37:23;;;;;;;4.00;3.60;;;21.60;1.00;;;;;;5081822;28;20454;-68
2021/06/12 06:39:50;;;;;;;6.27;5.63;;;21.50;1.00;;;;;;5082576;28;20478;-68
2021/06/12 06:42:17;;;;;;;7.33;4.13;;;21.50;24.50;;;;;;5082291;28;20788;-68
2021/06/12 06:44:43;;;;;;;3.90;3.60;;;21.50;98.20;;;;;;5084622;28;20458;-68
2021/06/12 06:47:12;;;;;;;4.33;3.60;;;21.50;99.90;;;;;;5082742;28;20458;-68
2021/06/12 06:49:39;;;;;;;3.90;3.60;;;21.60;17.70;;;;;;5082951;28;20548;-67
2021/06/12 06:52:06;;;;;;;3.70;3.50;;;21.70;1.00;;;;;;5083440;28;20450;-68
2021/06/12 06:54:32;;;;;;;8.57;4.17;;;21.60;1.00;;;;;;5085532;28;20458;-68
2021/06/12 06:56:59;;;;;;;4.03;3.60;;;21.70;1.00;;;;;;5085186;28;20784;-68
2021/06/12 06:59:30;;;;;;;4.73;3.37;;;21.80;1.00;;;;;;5080659;28;20485;-68
2021/06/12 07:01:56;;;;;;;3.90;3.37;;;21.80;99.90;;;;;;5082332;28;20474;-68
2021/06/12 07:04:23;;;;;;;4.27;3.87;;;21.80;1.00;;;;;;5084132;28;20802;-68
2021/06/12 07:06:49;;;;;;;3.50;3.20;;;22.00;1.00;;;;;;5085408;28;21024;-68
2021/06/12 07:09:15;;;;;;;3.73;3.43;;;22.10;99.90;;;;;;5084121;28;20446;-68
2021/06/12 07:11:41;;;;;;;5.00;3.60;;;22.20;99.90;;;;;;5084811;28;20908;-68
2021/06/12 07:14:08;;;;;;;3.90;3.60;;;22.30;99.90;;;;;;5083144;28;20462;-67
2021/06/12 07:16:36;;;;;;;4.50;4.10;;;22.30;1.00;;;;;;5081677;28;20466;-67
2021/06/12 07:19:02;;;;;;;4.73;3.80;;;22.20;99.90;;;;;;5080922;28;20486;-67
2021/06/12 07:21:28;;;;;;;10.13;4.60;;;22.20;99.90;;;;;;5079836;28;20863;-68
2021/06/12 07:23:54;;;;;;;4.20;3.70;;;22.10;99.90;;;;;;5080811;28;20489;-69
2021/06/12 07:26:20;;;;;;;5.33;4.83;;;22.10;99.90;;;;;;5079419;28;20489;-68
2021/06/12 07:28:47;;;;;;;5.53;5.03;;;22.00;99.90;;;;;;5079172;28;20477;-68
2021/06/12 07:31:13;;;;;;;5.40;4.90;;;21.90;1.00;;;;;;5086636;28;20460;-69
2021/06/12 07:33:40;;;;;;;5.70;5.20;;;21.80;1.00;;;;;;5087833;28;20446;-69
2021/06/12 07:36:07;;;;;;;5.20;4.70;;;21.80;1.00;;;;;;5086046;28;20511;-69
2021/06/12 07:38:33;;;;;;;5.30;4.80;;;21.80;99.90;;;;;;5086872;28;20758;-69
2021/06/12 07:41:01;;;;;;;6.43;5.93;;;21.80;99.90;;;;;;5086890;28;20461;-68
2021/06/12 07:43:28;;;;;;;6.27;5.37;;;21.80;28.50;;;;;;5085637;28;20481;-69
2021/06/12 07:45:54;;;;;;;5.33;4.90;;;21.90;9.50;;;;;;5084943;28;20450;-67
2021/06/12 07:48:20;;;;;;;6.03;4.97;;;21.90;94.50;;;;;;5084126;28;20446;-68
2021/06/12 07:50:48;;;;;;;6.00;5.50;;;21.90;99.90;;;;;;5085143;28;20446;-69
2021/06/12 07:53:14;;;;;;;5.47;4.97;;;21.90;10.30;;;;;;5085274;28;20446;-69
2021/06/12 07:55:40;;;;;;;5.00;4.50;;;21.90;99.90;;;;;;5088488;28;20492;-69
2021/06/12 07:58:06;;;;;;;6.40;5.60;;;21.90;99.90;;;;;;5086919;28;20450;-69
2021/06/12 08:00:33;;;;;;;6.13;4.73;;;21.90;7.40;;;;;;5087800;28;20481;-69
2021/06/12 08:02:59;;;;;;;5.43;4.97;;;22.00;1.00;;;;;;5088955;28;20464;-69
2021/06/12 08:05:26;;;;;;;6.07;5.47;;;22.00;1.00;;;;;;5088041;28;20752;-68
2021/06/12 08:07:53;;;;;;;9.27;8.33;;;22.10;1.00;;;;;;5084634;28;20453;-68
2021/06/12 08:10:20;;;;;;;9.03;6.57;;;22.20;1.00;;;;;;5085956;28;20454;-68
2021/06/12 08:12:46;;;;;;;7.00;6.30;;;22.20;99.90;;;;;;5086394;28;20462;-68
2021/06/12 08:15:13;;;;;;;6.53;5.73;;;22.00;1.00;;;;;;5087882;28;20483;-69
2021/06/12 08:17:40;;;;;;;6.37;5.87;;;21.90;99.90;;;;;;5085605;28;20458;-68
2021/06/12 08:20:07;;;;;;;6.30;5.30;;;21.90;99.90;;;;;;5084798;28;20478;-67
2021/06/12 08:22:33;;;;;;;9.30;7.83;;;21.80;99.90;;;;;;5085305;28;20492;-68
2021/06/12 08:25:01;;;;;;;10.50;8.00;;;21.70;99.90;;;;;;5085918;28;20473;-70
2021/06/12 08:27:27;;;;;;;7.77;6.90;;;21.60;1.00;;;;;;5086298;28;20459;-69
2021/06/12 08:29:53;;;;;;;8.00;7.20;;;21.60;99.90;;;;;;5086387;28;20492;-68
2021/06/12 08:32:20;;;;;;;7.50;6.80;;;21.60;59.50;;;;;;5086790;28;20540;-69
2021/06/12 08:34:46;;;;;;;7.73;6.63;;;21.70;94.50;;;;;;5087027;28;20454;-69
2021/06/12 08:37:12;;;;;;;7.60;6.80;;;21.70;28.00;;;;;;5087365;28;20450;-69
2021/06/12 08:39:38;;;;;;;9.00;8.10;;;21.90;1.00;;;;;;5086332;28;20806;-69
2021/06/12 08:42:06;;;;;;;7.83;7.13;;;22.00;99.90;;;;;;5082215;28;20910;-69
2021/06/12 08:44:35;;;;;;;7.33;6.63;;;22.00;1.00;;;;;;5081959;28;20536;-69
2021/06/12 08:47:01;;;;;;;7.40;6.80;;;22.10;99.90;;;;;;5081834;28;20454;-70
2021/06/12 08:49:27;;;;;;;8.13;7.30;;;22.10;99.90;;;;;;5082111;28;20839;-69
2021/06/12 08:51:54;;;;;;;9.00;7.80;;;22.00;45.40;;;;;;5083047;28;20876;-69
2021/06/12 08:54:23;;;;;;;10.43;6.57;;;22.00;99.90;;;;;;5081842;28;20464;-69
2021/06/12 08:56:49;;;;;;;8.03;7.23;;;22.00;1.00;;;;;;5082137;28;20466;-69
2021/06/12 08:59:17;;;;;;;8.40;7.60;;;22.00;99.90;;;;;;5082923;28;20489;-67
2021/06/12 09:01:44;;;;;;;8.37;6.90;;;22.10;1.00;;;;;;5082429;28;20465;-69
2021/06/12 09:04:10;;;;;;;10.27;7.27;;;22.10;99.90;;;;;;5082282;28;20464;-68
2021/06/12 09:06:37;;;;;;;12.23;7.63;;;22.10;99.90;;;;;;5082995;28;20446;-69
2021/06/12 09:09:04;;;;;;;8.50;7.70;;;22.00;99.90;;;;;;5081242;28;20458;-69
2021/06/12 09:11:34;;;;;;;8.53;6.53;;;21.90;1.00;;;;;;5080581;28;20469;-69
2021/06/12 09:14:01;;;;;;;9.03;7.63;;;21.70;1.00;;;;;;5081009;28;20461;-70
2021/06/12 09:16:33;;;;;;;7.67;6.87;;;21.60;9.30;;;;;;5083490;28;20454;-70
2021/06/12 09:19:04;;;;;;;8.30;7.50;;;21.60;99.90;;;;;;5081871;28;20883;-70
2021/06/12 09:21:33;;;;;;;7.97;7.27;;;21.40;1.00;;;;;;5081134;28;20980;-68
2021/06/12 09:24:00;;;;;;;8.67;7.70;;;21.30;1.00;;;;;;5082549;28;20573;-69
2021/06/12 09:26:45;;;;;;;9.30;8.37;;;21.20;99.90;;;;;;5082585;28;20550;-69
2021/06/12 09:29:17;;;;;;;9.63;8.13;;;21.00;99.90;;;;;;5083429;28;20484;-69
2021/06/12 09:31:47;;;;;;;12.70;9.93;;;20.80;1.00;;;;;;5083889;28;20471;-70
2021/06/12 09:34:15;;;;;;;11.53;10.33;;;20.50;1.00;;;;;;5083424;28;20439;-69
2021/06/12 09:36:42;;;;;;;11.53;9.90;;;20.10;1.00;;;;;;5083476;28;20468;-69
2021/06/12 09:39:14;;;;;;;13.87;12.17;;;19.80;1.00;;;;;;5079189;28;20478;-69
2021/06/12 09:41:43;;;;;;;16.70;13.20;;;19.50;31.20;;;;;;5080021;28;20442;-69
2021/06/12 09:44:10;;;;;;;16.47;13.87;;;19.30;55.70;;;;;;5082378;28;20469;-70
2021/06/12 09:46:39;;;;;;;18.33;16.43;;;19.20;85.20;;;;;;5079323;28;20776;-67
2021/06/12 09:49:09;;;;;;;19.40;14.90;;;19.10;98.90;;;;;;5079170;28;20454;-68
2021/06/12 09:51:36;;;;;;;20.20;15.23;;;19.10;99.90;;;;;;5079043;28;20462;-68
2021/06/12 09:54:04;;;;;;;21.60;15.53;;;19.10;99.90;;;;;;5077374;28;20454;-68
2021/06/12 09:56:32;;;;;;;19.97;15.57;;;19.00;99.90;;;;;;5078767;28;20469;-68
2021/06/12 09:59:00;;;;;;;18.37;15.10;;;19.00;99.90;;;;;;5078200;28;20454;-66
2021/06/12 10:01:31;;;;;;;22.17;16.20;;;19.10;99.90;;;;;;5079359;28;20454;-67
2021/06/12 10:04:13;;;;;;;16.30;13.77;;;19.10;99.90;;;;;;5079579;28;20434;-66
2021/06/12 10:06:42;;;;;;;20.53;17.07;;;19.20;99.90;;;;;;5078510;28;20512;-66
2021/06/12 10:09:09;;;;;;;16.93;15.10;;;19.30;99.90;;;;;;5078082;28;20527;-68
2021/06/12 10:11:36;;;;;;;16.97;15.17;;;19.30;99.90;;;;;;5078064;28;20458;-68
2021/06/12 10:14:04;;;;;;;16.40;14.60;;;19.40;99.90;;;;;;5078916;28;20922;-68
2021/06/12 10:16:36;;;;;;;18.03;15.40;;;19.40;99.90;;;;;;5079386;28;20458;-68
2021/06/12 10:19:06;;;;;;;19.07;15.70;;;19.50;99.90;;;;;;5079574;28;20450;-68
2021/06/12 10:21:34;;;;;;;16.70;14.67;;;19.60;99.90;;;;;;5080644;28;20469;-68
2021/06/12 10:24:05;;;;;;;17.10;15.30;;;19.70;99.90;;;;;;5080872;28;20486;-68
2021/06/12 10:26:32;;;;;;;16.60;14.90;;;19.70;99.90;;;;;;5080873;28;20439;-68
2021/06/12 10:28:59;;;;;;;18.67;13.83;;;19.80;99.90;;;;;;5081783;28;20566;-68
2021/06/12 10:31:27;;;;;;;14.50;13.10;;;20.00;99.90;;;;;;5080929;28;20462;-68
2021/06/12 10:33:55;;;;;;;15.17;13.60;;;20.20;99.90;;;;;;5080391;28;20454;-66
2021/06/12 10:36:24;;;;;;;14.17;12.60;;;20.30;99.90;;;;;;5081997;28;20941;-68
2021/06/12 10:38:52;;;;;;;15.13;12.47;;;20.50;96.90;;;;;;5081497;28;20561;-68
2021/06/12 10:41:21;;;;;;;14.10;12.67;;;20.80;86.90;;;;;;5082328;28;20482;-67
2021/06/12 10:43:50;;;;;;;14.00;11.70;;;21.10;20.20;;;;;;5080701;28;20796;-68
2021/06/12 10:46:20;;;;;;;12.00;10.73;;;21.30;1.00;;;;;;5082055;28;20976;-68
2021/06/12 10:48:49;;;;;;;12.43;11.23;;;21.40;1.00;;;;;;5082413;28;20736;-68
2021/06/12 10:51:44;;;;;;;11.60;10.60;;;21.50;1.00;;;;;;5081729;28;20446;-68
2021/06/12 10:54:24;;;;;;;13.50;9.83;;;21.60;1.00;;;;;;5083251;28;20445;-68
2021/06/12 10:56:53;;;;;;;10.53;9.57;;;21.70;1.00;;;;;;5082895;28;20755;-69
2021/06/12 10:59:41;;;;;;;10.20;9.20;;;21.80;1.00;;;;;;5084618;28;20548;-68
2021/06/12 11:02:11;;;;;;;8.50;7.37;;;21.90;1.00;;;;;;5080119;28;20480;-67
2021/06/12 11:04:42;;;;;;;7.60;7.00;;;21.90;99.90;;;;;;5084073;28;20452;-68
2021/06/12 11:07:34;;;;;;;7.97;7.17;;;22.00;99.90;;;;;;5084837;28;20465;-67
2021/06/12 11:10:25;;;;;;;7.20;6.60;;;21.90;99.90;;;;;;5076675;28;20464;-67
2021/06/12 11:12:56;;;;;;;8.10;7.30;;;22.00;99.90;;;;;;5082844;28;20434;-68
2021/06/12 11:15:33;;;;;;;7.47;6.47;;;22.10;1.00;;;;;;5083796;28;20462;-67
2021/06/12 11:18:17;;;;;;;7.70;7.10;;;22.00;99.90;;;;;;5084854;28;20511;-68
2021/06/12 11:20:46;;;;;;;6.93;6.23;;;22.10;99.90;;;;;;5084059;28;20466;-67
2021/06/12 11:23:16;;;;;;;7.03;6.47;;;22.10;99.90;;;;;;5082347;28;20492;-69
2021/06/12 11:25:45;;;;;;;6.93;6.33;;;22.10;1.00;;;;;;5082556;28;20453;-68
2021/06/12 11:28:22;;;;;;;6.97;6.30;;;22.20;99.90;;;;;;5085276;28;20541;-68
2021/06/12 11:30:49;;;;;;;9.30;6.90;;;22.30;1.00;;;;;;5080606;28;20438;-69
2021/06/12 11:33:17;;;;;;;7.97;6.30;;;22.40;1.00;;;;;;5081949;28;20458;-68
2021/06/12 11:35:46;;;;;;;6.43;5.93;;;22.50;99.90;;;;;;5080114;28;20494;-70
2021/06/12 11:38:15;;;;;;;5.80;5.33;;;22.60;1.00;;;;;;5081228;28;20461;-70
2021/06/12 11:40:51;;;;;;;5.23;4.83;;;22.70;99.90;;;;;;5079831;28;20482;-67
2021/06/12 11:43:32;;;;;;;6.43;5.83;;;22.80;1.00;;;;;;5081685;28;20441;-68
2021/06/12 11:45:59;;;;;;;8.00;5.53;;;22.80;1.00;;;;;;5079465;28;20811;-68
2021/06/12 11:48:25;;;;;;;5.83;5.23;;;22.80;99.90;;;;;;5080918;28;20465;-68
2021/06/12 11:50:52;;;;;;;6.80;5.17;;;22.60;1.00;;;;;;5080479;28;20998;-68
2021/06/12 11:53:34;;;;;;;6.50;5.90;;;22.50;1.00;;;;;;5083778;28;20512;-68
2021/06/12 11:56:00;;;;;;;6.30;5.70;;;22.60;1.00;;;;;;5082068;28;20468;-69
2021/06/12 11:58:26;;;;;;;6.50;5.97;;;22.60;1.00;;;;;;5080917;28;20488;-70
2021/06/12 12:00:53;;;;;;;6.10;5.60;;;22.50;99.90;;;;;;5082467;28;20489;-69
2021/06/12 12:03:19;;;;;;;6.20;5.60;;;22.50;99.90;;;;;;5080873;28;20458;-69
2021/06/12 12:05:47;;;;;;;5.10;4.60;;;22.50;99.90;;;;;;5080189;28;20501;-68
2021/06/12 12:08:17;;;;;;;4.90;4.53;;;22.40;1.00;;;;;;5079218;28;20458;-69
2021/06/12 12:10:48;;;;;;;4.53;4.17;;;22.40;1.00;;;;;;5082145;28;20871;-67
2021/06/12 12:13:34;;;;;;;5.10;4.60;;;22.40;1.00;;;;;;5081171;28;20442;-68
2021/06/12 12:16:01;;;;;;;4.30;4.00;;;22.30;1.00;;;;;;5081194;28;20541;-67
2021/06/12 12:18:27;;;;;;;4.27;3.40;;;22.20;1.00;;;;;;5083868;28;20458;-68
2021/06/12 12:20:57;;;;;;;3.57;3.27;;;21.90;1.00;;;;;;5084647;28;20474;-68
2021/06/12 12:23:26;;;;;;;3.80;3.23;;;21.40;99.90;;;;;;5082809;28;20664;-67
2021/06/12 12:26:07;;;;;;;4.57;3.30;;;20.80;1.00;;;;;;5082308;28;20493;-67
2021/06/12 12:28:33;;;;;;;3.33;3.03;;;20.30;1.00;;;;;;5082602;28;20774;-67
2021/06/12 12:31:07;;;;;;;3.33;3.10;;;20.00;1.00;;;;;;5084083;28;20461;-67
2021/06/12 12:33:44;;;;;;;6.87;3.70;;;19.80;1.00;;;;;;5084119;28;20465;-67
2021/06/12 12:36:11;;;;;;;4.10;3.70;;;19.60;1.00;;;;;;5084140;28;20438;-67
2021/06/12 12:38:37;;;;;;;4.33;4.03;;;19.50;1.00;;;;;;5084316;28;20791;-67
2021/06/12 12:41:07;;;;;;;3.93;3.63;;;19.40;1.00;;;;;;5082880;28;20504;-67
2021/06/12 12:43:33;;;;;;;3.93;3.63;;;19.40;1.00;;;;;;5083736;28;20458;-67
2021/06/12 12:46:00;;;;;;;4.70;4.20;;;19.30;1.00;;;;;;5083026;28;20484;-67
2021/06/12 12:48:26;;;;;;;4.80;4.30;;;19.30;1.00;;;;;;5083582;28;20507;-69
2021/06/12 12:50:52;;;;;;;4.20;3.90;;;19.40;1.00;;;;;;5083522;28;20450;-67
2021/06/12 12:53:20;;;;;;;4.93;4.53;;;19.60;1.00;;;;;;5082668;28;20454;-67
2021/06/12 12:55:56;;;;;;;4.07;3.63;;;19.70;1.00;;;;;;5082729;28;20454;-66